sensor_id;sensor_type;location;lat;lon;timestamp;temperature;humidity
73750;SHT30;62058;48.406;-4.514;2022-07-23T00:01:53;19.63;56.34
73750;SHT30;62058;48.406;-4.514;2022-07-23T00:04:18;19.60;58.77
73750;SHT30;62058;48.406;-4.514;2022-07-23T00:06:44;19.55;60.06
73750;SHT30;62058;48.406;-4.514;2022-07-23T00:09:09;19.49;60.24
73750;SHT30;62058;48.406;-4.514;2022-07-23T00:11:35;19.50;60.10
73750;SHT30;62058;48.406;-4.514;2022-07-23T00:14:00;19.44;61.96
73750;SHT30;62058;48.406;-4.514;2022-07-23T00:16:25;19.40;61.89
73750;SHT30;62058;48.406;-4.514;2022-07-23T00:18:51;19.40;60.41
73750;SHT30;62058;48.406;-4.514;2022-07-23T00:21:16;19.34;60.51
73750;SHT30;62058;48.406;-4.514;2022-07-23T00:23:42;19.35;57.50
73750;SHT30;62058;48.406;-4.514;2022-07-23T00:26:07;19.33;59.51
73750;SHT30;62058;48.406;-4.514;2022-07-23T00:28:33;19.28;60.27
73750;SHT30;62058;48.406;-4.514;2022-07-23T00:30:58;19.24;57.59
73750;SHT30;62058;48.406;-4.514;2022-07-23T00:33:24;19.17;57.76
73750;SHT30;62058;48.406;-4.514;2022-07-23T00:35:49;19.12;60.94
73750;SHT30;62058;48.406;-4.514;2022-07-23T00:38:14;19.10;61.24
73750;SHT30;62058;48.406;-4.514;2022-07-23T00:40:40;19.03;60.54
73750;SHT30;62058;48.406;-4.514;2022-07-23T00:43:06;19.03;61.90
73750;SHT30;62058;48.406;-4.514;2022-07-23T00:45:32;18.99;61.81
73750;SHT30;62058;48.406;-4.514;2022-07-23T00:47:57;18.98;62.66
73750;SHT30;62058;48.406;-4.514;2022-07-23T00:50:23;18.89;62.71
73750;SHT30;62058;48.406;-4.514;2022-07-23T00:52:48;18.88;62.25
73750;SHT30;62058;48.406;-4.514;2022-07-23T00:55:14;18.82;65.41
73750;SHT30;62058;48.406;-4.514;2022-07-23T00:57:40;18.73;66.18
73750;SHT30;62058;48.406;-4.514;2022-07-23T01:00:09;18.72;59.83
73750;SHT30;62058;48.406;-4.514;2022-07-23T01:02:36;18.69;61.20
73750;SHT30;62058;48.406;-4.514;2022-07-23T01:05:02;18.68;65.36
73750;SHT30;62058;48.406;-4.514;2022-07-23T01:07:28;18.58;66.04
73750;SHT30;62058;48.406;-4.514;2022-07-23T01:09:54;18.55;63.11
73750;SHT30;62058;48.406;-4.514;2022-07-23T01:12:19;18.48;66.95
73750;SHT30;62058;48.406;-4.514;2022-07-23T01:15:02;18.45;64.03
73750;SHT30;62058;48.406;-4.514;2022-07-23T01:17:27;18.44;65.86
73750;SHT30;62058;48.406;-4.514;2022-07-23T01:19:53;18.45;64.49
73750;SHT30;62058;48.406;-4.514;2022-07-23T01:22:19;18.47;64.80
73750;SHT30;62058;48.406;-4.514;2022-07-23T01:24:45;18.49;66.54
73750;SHT30;62058;48.406;-4.514;2022-07-23T01:27:11;18.47;66.10
73750;SHT30;62058;48.406;-4.514;2022-07-23T01:29:38;18.48;65.87
73750;SHT30;62058;48.406;-4.514;2022-07-23T01:32:04;18.48;66.28
73750;SHT30;62058;48.406;-4.514;2022-07-23T01:34:29;18.45;66.49
73750;SHT30;62058;48.406;-4.514;2022-07-23T01:36:55;18.47;63.93
73750;SHT30;62058;48.406;-4.514;2022-07-23T01:39:20;18.53;64.26
73750;SHT30;62058;48.406;-4.514;2022-07-23T01:41:46;18.51;66.13
73750;SHT30;62058;48.406;-4.514;2022-07-23T01:44:12;18.45;66.50
73750;SHT30;62058;48.406;-4.514;2022-07-23T01:46:38;18.41;64.85
73750;SHT30;62058;48.406;-4.514;2022-07-23T01:49:04;18.39;65.44
73750;SHT30;62058;48.406;-4.514;2022-07-23T01:51:29;18.38;65.45
73750;SHT30;62058;48.406;-4.514;2022-07-23T01:53:55;18.41;65.34
73750;SHT30;62058;48.406;-4.514;2022-07-23T01:56:20;18.35;65.56
73750;SHT30;62058;48.406;-4.514;2022-07-23T01:58:46;18.37;63.74
73750;SHT30;62058;48.406;-4.514;2022-07-23T02:01:12;18.31;64.08
73750;SHT30;62058;48.406;-4.514;2022-07-23T02:03:37;18.31;65.40
73750;SHT30;62058;48.406;-4.514;2022-07-23T02:06:03;18.27;64.88
73750;SHT30;62058;48.406;-4.514;2022-07-23T02:08:28;18.29;64.93
73750;SHT30;62058;48.406;-4.514;2022-07-23T02:10:53;18.25;64.66
73750;SHT30;62058;48.406;-4.514;2022-07-23T02:13:19;18.31;64.48
73750;SHT30;62058;48.406;-4.514;2022-07-23T02:15:46;18.31;64.37
73750;SHT30;62058;48.406;-4.514;2022-07-23T02:18:11;18.29;64.06
73750;SHT30;62058;48.406;-4.514;2022-07-23T02:20:37;18.29;64.75
73750;SHT30;62058;48.406;-4.514;2022-07-23T02:23:04;18.28;64.94
73750;SHT30;62058;48.406;-4.514;2022-07-23T02:25:29;18.28;62.69
73750;SHT30;62058;48.406;-4.514;2022-07-23T02:27:54;18.29;63.36
73750;SHT30;62058;48.406;-4.514;2022-07-23T02:30:20;18.34;63.60
73750;SHT30;62058;48.406;-4.514;2022-07-23T02:32:45;18.35;63.88
73750;SHT30;62058;48.406;-4.514;2022-07-23T02:35:11;18.37;63.36
73750;SHT30;62058;48.406;-4.514;2022-07-23T02:37:36;18.31;64.08
73750;SHT30;62058;48.406;-4.514;2022-07-23T02:40:02;18.31;64.37
73750;SHT30;62058;48.406;-4.514;2022-07-23T02:42:27;18.25;64.62
73750;SHT30;62058;48.406;-4.514;2022-07-23T02:44:53;18.25;64.87
73750;SHT30;62058;48.406;-4.514;2022-07-23T02:47:18;18.24;65.07
73750;SHT30;62058;48.406;-4.514;2022-07-23T02:49:44;18.12;66.30
73750;SHT30;62058;48.406;-4.514;2022-07-23T02:52:09;18.08;66.72
73750;SHT30;62058;48.406;-4.514;2022-07-23T02:54:37;18.05;65.92
73750;SHT30;62058;48.406;-4.514;2022-07-23T02:57:03;18.07;66.09
73750;SHT30;62058;48.406;-4.514;2022-07-23T02:59:29;18.00;67.20
73750;SHT30;62058;48.406;-4.514;2022-07-23T03:01:54;18.00;65.18
73750;SHT30;62058;48.406;-4.514;2022-07-23T03:04:20;17.96;67.45
73750;SHT30;62058;48.406;-4.514;2022-07-23T03:06:45;17.94;64.00
73750;SHT30;62058;48.406;-4.514;2022-07-23T03:09:11;17.88;67.36
73750;SHT30;62058;48.406;-4.514;2022-07-23T03:11:36;17.90;66.88
73750;SHT30;62058;48.406;-4.514;2022-07-23T03:14:01;17.90;67.35
73750;SHT30;62058;48.406;-4.514;2022-07-23T03:16:27;17.88;67.04
73750;SHT30;62058;48.406;-4.514;2022-07-23T03:18:52;17.90;67.24
73750;SHT30;62058;48.406;-4.514;2022-07-23T03:21:18;17.94;66.93
73750;SHT30;62058;48.406;-4.514;2022-07-23T03:23:43;17.98;66.26
73750;SHT30;62058;48.406;-4.514;2022-07-23T03:26:08;18.01;66.42
73750;SHT30;62058;48.406;-4.514;2022-07-23T03:28:34;18.04;66.55
73750;SHT30;62058;48.406;-4.514;2022-07-23T03:30:59;18.04;66.33
73750;SHT30;62058;48.406;-4.514;2022-07-23T03:33:25;18.07;66.18
73750;SHT30;62058;48.406;-4.514;2022-07-23T03:35:50;18.10;65.85
73750;SHT30;62058;48.406;-4.514;2022-07-23T03:38:15;18.11;66.38
73750;SHT30;62058;48.406;-4.514;2022-07-23T03:40:41;18.17;65.52
73750;SHT30;62058;48.406;-4.514;2022-07-23T03:43:07;18.19;66.10
73750;SHT30;62058;48.406;-4.514;2022-07-23T03:45:33;18.19;65.46
73750;SHT30;62058;48.406;-4.514;2022-07-23T03:47:58;18.17;65.96
73750;SHT30;62058;48.406;-4.514;2022-07-23T03:50:24;18.21;65.62
73750;SHT30;62058;48.406;-4.514;2022-07-23T03:52:50;18.21;66.59
73750;SHT30;62058;48.406;-4.514;2022-07-23T03:55:15;18.22;66.42
73750;SHT30;62058;48.406;-4.514;2022-07-23T03:57:41;18.25;66.21
73750;SHT30;62058;48.406;-4.514;2022-07-23T04:00:09;18.25;65.78
73750;SHT30;62058;48.406;-4.514;2022-07-23T04:02:36;18.28;64.95
73750;SHT30;62058;48.406;-4.514;2022-07-23T04:05:02;18.29;63.80
73750;SHT30;62058;48.406;-4.514;2022-07-23T04:07:28;18.28;64.92
73750;SHT30;62058;48.406;-4.514;2022-07-23T04:09:53;18.29;64.13
73750;SHT30;62058;48.406;-4.514;2022-07-23T04:12:18;18.25;65.19
73750;SHT30;62058;48.406;-4.514;2022-07-23T04:14:44;18.15;65.44
73750;SHT30;62058;48.406;-4.514;2022-07-23T04:17:10;18.11;65.44
73750;SHT30;62058;48.406;-4.514;2022-07-23T04:19:36;18.08;64.37
73750;SHT30;62058;48.406;-4.514;2022-07-23T04:22:06;18.11;62.55
73750;SHT30;62058;48.406;-4.514;2022-07-23T04:24:31;18.05;63.90
73750;SHT30;62058;48.406;-4.514;2022-07-23T04:26:57;18.01;66.09
73750;SHT30;62058;48.406;-4.514;2022-07-23T04:29:23;17.96;66.86
73750;SHT30;62058;48.406;-4.514;2022-07-23T04:31:48;17.88;67.34
73750;SHT30;62058;48.406;-4.514;2022-07-23T04:34:14;17.86;66.90
73750;SHT30;62058;48.406;-4.514;2022-07-23T04:36:39;17.90;66.78
73750;SHT30;62058;48.406;-4.514;2022-07-23T04:39:04;17.90;67.20
73750;SHT30;62058;48.406;-4.514;2022-07-23T04:41:30;17.86;67.59
73750;SHT30;62058;48.406;-4.514;2022-07-23T04:43:55;17.88;67.64
73750;SHT30;62058;48.406;-4.514;2022-07-23T04:46:21;17.94;67.36
73750;SHT30;62058;48.406;-4.514;2022-07-23T04:48:46;17.98;66.66
73750;SHT30;62058;48.406;-4.514;2022-07-23T04:51:11;17.97;67.54
73750;SHT30;62058;48.406;-4.514;2022-07-23T04:53:38;18.01;66.83
73750;SHT30;62058;48.406;-4.514;2022-07-23T04:56:04;18.07;68.02
73750;SHT30;62058;48.406;-4.514;2022-07-23T04:58:29;18.14;68.11
73750;SHT30;62058;48.406;-4.514;2022-07-23T05:00:57;18.19;64.97
73750;SHT30;62058;48.406;-4.514;2022-07-23T05:03:23;18.27;67.74
73750;SHT30;62058;48.406;-4.514;2022-07-23T05:05:48;18.32;67.26
73750;SHT30;62058;48.406;-4.514;2022-07-23T05:08:13;18.39;67.34
73750;SHT30;62058;48.406;-4.514;2022-07-23T05:10:39;18.42;67.16
73750;SHT30;62058;48.406;-4.514;2022-07-23T05:13:04;18.44;67.46
73750;SHT30;62058;48.406;-4.514;2022-07-23T05:15:30;18.47;67.77
73750;SHT30;62058;48.406;-4.514;2022-07-23T05:17:55;18.48;67.25
73750;SHT30;62058;48.406;-4.514;2022-07-23T05:20:21;18.55;67.03
73750;SHT30;62058;48.406;-4.514;2022-07-23T05:22:46;18.66;67.27
73750;SHT30;62058;48.406;-4.514;2022-07-23T05:25:12;18.75;67.28
73750;SHT30;62058;48.406;-4.514;2022-07-23T05:27:37;18.83;66.69
73750;SHT30;62058;48.406;-4.514;2022-07-23T05:30:03;18.95;66.60
73750;SHT30;62058;48.406;-4.514;2022-07-23T05:32:31;19.03;64.67
73750;SHT30;62058;48.406;-4.514;2022-07-23T05:34:57;19.13;66.20
73750;SHT30;62058;48.406;-4.514;2022-07-23T05:37:22;19.24;65.72
73750;SHT30;62058;48.406;-4.514;2022-07-23T05:39:47;19.31;66.09
73750;SHT30;62058;48.406;-4.514;2022-07-23T05:42:13;19.43;65.56
73750;SHT30;62058;48.406;-4.514;2022-07-23T05:44:38;19.47;65.69
73750;SHT30;62058;48.406;-4.514;2022-07-23T05:47:04;19.51;66.14
73750;SHT30;62058;48.406;-4.514;2022-07-23T05:49:29;19.60;64.98
73750;SHT30;62058;48.406;-4.514;2022-07-23T05:51:54;19.73;65.43
73750;SHT30;62058;48.406;-4.514;2022-07-23T05:54:20;19.78;65.57
73750;SHT30;62058;48.406;-4.514;2022-07-23T05:56:45;19.81;64.83
73750;SHT30;62058;48.406;-4.514;2022-07-23T05:59:10;19.91;65.50
73750;SHT30;62058;48.406;-4.514;2022-07-23T06:01:38;20.01;64.65
73750;SHT30;62058;48.406;-4.514;2022-07-23T06:04:03;20.09;64.95
73750;SHT30;62058;48.406;-4.514;2022-07-23T06:06:29;20.11;64.69
73750;SHT30;62058;48.406;-4.514;2022-07-23T06:08:54;20.12;65.10
73750;SHT30;62058;48.406;-4.514;2022-07-23T06:11:19;20.22;63.05
73750;SHT30;62058;48.406;-4.514;2022-07-23T06:13:45;20.30;64.30
73750;SHT30;62058;48.406;-4.514;2022-07-23T06:16:10;20.40;64.15
73750;SHT30;62058;48.406;-4.514;2022-07-23T06:18:36;20.42;65.94
73750;SHT30;62058;48.406;-4.514;2022-07-23T06:21:01;20.49;64.55
73750;SHT30;62058;48.406;-4.514;2022-07-23T06:23:27;20.52;66.02
73750;SHT30;62058;48.406;-4.514;2022-07-23T06:25:52;20.55;65.39
73750;SHT30;62058;48.406;-4.514;2022-07-23T06:28:17;20.57;64.91
73750;SHT30;62058;48.406;-4.514;2022-07-23T06:30:43;20.65;64.69
73750;SHT30;62058;48.406;-4.514;2022-07-23T06:33:08;20.77;64.76
73750;SHT30;62058;48.406;-4.514;2022-07-23T06:35:33;20.86;63.17
73750;SHT30;62058;48.406;-4.514;2022-07-23T06:37:59;20.90;64.53
73750;SHT30;62058;48.406;-4.514;2022-07-23T06:40:25;20.97;63.17
73750;SHT30;62058;48.406;-4.514;2022-07-23T06:42:50;21.03;64.40
73750;SHT30;62058;48.406;-4.514;2022-07-23T06:45:16;21.04;63.95
73750;SHT30;62058;48.406;-4.514;2022-07-23T06:47:42;21.06;65.09
73750;SHT30;62058;48.406;-4.514;2022-07-23T06:50:08;21.11;65.39
73750;SHT30;62058;48.406;-4.514;2022-07-23T06:52:33;21.18;64.54
73750;SHT30;62058;48.406;-4.514;2022-07-23T06:54:59;21.27;62.58
73750;SHT30;62058;48.406;-4.514;2022-07-23T06:57:24;21.35;62.83
73750;SHT30;62058;48.406;-4.514;2022-07-23T06:59:51;21.52;61.85
73750;SHT30;62058;48.406;-4.514;2022-07-23T07:02:16;21.50;62.79
73750;SHT30;62058;48.406;-4.514;2022-07-23T07:04:42;21.62;63.00
73750;SHT30;62058;48.406;-4.514;2022-07-23T07:07:08;21.72;62.77
73750;SHT30;62058;48.406;-4.514;2022-07-23T07:09:33;21.81;62.34
73750;SHT30;62058;48.406;-4.514;2022-07-23T07:11:58;21.85;62.76
73750;SHT30;62058;48.406;-4.514;2022-07-23T07:14:24;22.01;61.88
73750;SHT30;62058;48.406;-4.514;2022-07-23T07:16:49;21.89;63.11
73750;SHT30;62058;48.406;-4.514;2022-07-23T07:19:14;21.95;62.53
73750;SHT30;62058;48.406;-4.514;2022-07-23T07:21:40;22.05;61.88
73750;SHT30;62058;48.406;-4.514;2022-07-23T07:24:05;22.13;62.48
73750;SHT30;62058;48.406;-4.514;2022-07-23T07:26:31;22.16;62.40
73750;SHT30;62058;48.406;-4.514;2022-07-23T07:28:57;22.12;62.43
73750;SHT30;62058;48.406;-4.514;2022-07-23T07:31:22;22.09;61.70
73750;SHT30;62058;48.406;-4.514;2022-07-23T07:33:48;22.10;61.32
73750;SHT30;62058;48.406;-4.514;2022-07-23T07:36:13;22.16;61.25
73750;SHT30;62058;48.406;-4.514;2022-07-23T07:38:40;22.16;60.67
73750;SHT30;62058;48.406;-4.514;2022-07-23T07:41:06;22.12;61.43
73750;SHT30;62058;48.406;-4.514;2022-07-23T07:43:32;22.19;60.58
73750;SHT30;62058;48.406;-4.514;2022-07-23T07:45:58;22.15;60.43
73750;SHT30;62058;48.406;-4.514;2022-07-23T07:48:24;22.03;61.41
73750;SHT30;62058;48.406;-4.514;2022-07-23T07:50:49;22.10;60.43
73750;SHT30;62058;48.406;-4.514;2022-07-23T07:53:14;22.16;60.58
73750;SHT30;62058;48.406;-4.514;2022-07-23T07:55:40;22.02;61.30
73750;SHT30;62058;48.406;-4.514;2022-07-23T07:58:05;21.96;61.64
73750;SHT30;62058;48.406;-4.514;2022-07-23T08:00:31;22.12;61.36
73750;SHT30;62058;48.406;-4.514;2022-07-23T08:02:56;22.15;61.10
73750;SHT30;62058;48.406;-4.514;2022-07-23T08:05:27;22.23;60.69
73750;SHT30;62058;48.406;-4.514;2022-07-23T08:07:55;22.46;59.87
73750;SHT30;62058;48.406;-4.514;2022-07-23T08:10:21;22.57;59.38
73750;SHT30;62058;48.406;-4.514;2022-07-23T08:12:49;22.60;58.53
73750;SHT30;62058;48.406;-4.514;2022-07-23T08:15:16;22.44;58.82
73750;SHT30;62058;48.406;-4.514;2022-07-23T08:17:44;22.50;58.76
73750;SHT30;62058;48.406;-4.514;2022-07-23T08:20:11;22.61;58.58
73750;SHT30;62058;48.406;-4.514;2022-07-23T08:22:57;22.81;58.07
73750;SHT30;62058;48.406;-4.514;2022-07-23T08:25:30;22.91;57.68
73750;SHT30;62058;48.406;-4.514;2022-07-23T08:27:57;22.80;57.57
73750;SHT30;62058;48.406;-4.514;2022-07-23T08:30:23;22.80;57.81
73750;SHT30;62058;48.406;-4.514;2022-07-23T08:32:56;22.76;58.06
73750;SHT30;62058;48.406;-4.514;2022-07-23T08:35:32;22.77;57.94
73750;SHT30;62058;48.406;-4.514;2022-07-23T08:37:59;22.77;58.49
73750;SHT30;62058;48.406;-4.514;2022-07-23T08:40:29;22.91;57.91
73750;SHT30;62058;48.406;-4.514;2022-07-23T08:42:55;22.50;58.54
73750;SHT30;62058;48.406;-4.514;2022-07-23T08:45:22;22.49;58.47
73750;SHT30;62058;48.406;-4.514;2022-07-23T08:47:52;22.47;59.13
73750;SHT30;62058;48.406;-4.514;2022-07-23T08:50:19;22.42;59.71
73750;SHT30;62058;48.406;-4.514;2022-07-23T08:52:45;22.44;58.75
73750;SHT30;62058;48.406;-4.514;2022-07-23T08:55:12;22.44;59.18
73750;SHT30;62058;48.406;-4.514;2022-07-23T08:57:37;22.36;59.24
73750;SHT30;62058;48.406;-4.514;2022-07-23T09:00:04;22.16;59.63
73750;SHT30;62058;48.406;-4.514;2022-07-23T09:02:31;22.23;59.37
73750;SHT30;62058;48.406;-4.514;2022-07-23T09:04:56;22.28;59.67
73750;SHT30;62058;48.406;-4.514;2022-07-23T09:07:22;22.26;59.27
73750;SHT30;62058;48.406;-4.514;2022-07-23T09:10:05;22.32;59.19
73750;SHT30;62058;48.406;-4.514;2022-07-23T09:12:31;22.57;58.68
73750;SHT30;62058;48.406;-4.514;2022-07-23T09:15:04;22.61;58.69
73750;SHT30;62058;48.406;-4.514;2022-07-23T09:17:37;22.61;58.52
73750;SHT30;62058;48.406;-4.514;2022-07-23T09:20:13;22.63;58.86
73750;SHT30;62058;48.406;-4.514;2022-07-23T09:22:46;22.66;58.47
73750;SHT30;62058;48.406;-4.514;2022-07-23T09:25:15;22.64;58.18
73750;SHT30;62058;48.406;-4.514;2022-07-23T09:27:58;22.78;57.77
73750;SHT30;62058;48.406;-4.514;2022-07-23T09:30:27;22.73;58.05
73750;SHT30;62058;48.406;-4.514;2022-07-23T09:33:09;22.81;57.84
73750;SHT30;62058;48.406;-4.514;2022-07-23T09:38:13;23.03;57.69
73750;SHT30;62058;48.406;-4.514;2022-07-23T09:40:38;23.08;57.69
73750;SHT30;62058;48.406;-4.514;2022-07-23T09:43:04;23.15;57.64
73750;SHT30;62058;48.406;-4.514;2022-07-23T09:45:29;23.19;57.56
73750;SHT30;62058;48.406;-4.514;2022-07-23T09:48:15;23.17;57.87
73750;SHT30;62058;48.406;-4.514;2022-07-23T09:50:41;23.27;57.30
73750;SHT30;62058;48.406;-4.514;2022-07-23T09:53:08;23.25;57.92
73750;SHT30;62058;48.406;-4.514;2022-07-23T09:55:35;23.29;57.85
73750;SHT30;62058;48.406;-4.514;2022-07-23T09:58:06;23.19;57.36
73750;SHT30;62058;48.406;-4.514;2022-07-23T10:00:38;23.01;57.85
73750;SHT30;62058;48.406;-4.514;2022-07-23T10:03:06;23.01;58.00
73750;SHT30;62058;48.406;-4.514;2022-07-23T10:05:33;23.07;57.93
73750;SHT30;62058;48.406;-4.514;2022-07-23T10:08:02;23.24;57.31
73750;SHT30;62058;48.406;-4.514;2022-07-23T10:10:28;23.18;57.12
73750;SHT30;62058;48.406;-4.514;2022-07-23T10:12:56;23.24;57.88
73750;SHT30;62058;48.406;-4.514;2022-07-23T10:15:24;23.28;56.67
73750;SHT30;62058;48.406;-4.514;2022-07-23T10:17:51;23.04;56.39
73750;SHT30;62058;48.406;-4.514;2022-07-23T10:20:16;22.86;57.63
73750;SHT30;62058;48.406;-4.514;2022-07-23T10:31:02;22.87;56.77
73750;SHT30;62058;48.406;-4.514;2022-07-23T10:39:26;22.86;55.83
73750;SHT30;62058;48.406;-4.514;2022-07-23T10:42:08;23.01;55.02
73750;SHT30;62058;48.406;-4.514;2022-07-23T10:44:39;23.31;55.01
73750;SHT30;62058;48.406;-4.514;2022-07-23T10:47:06;23.32;53.34
73750;SHT30;62058;48.406;-4.514;2022-07-23T10:49:50;23.03;53.86
73750;SHT30;62058;48.406;-4.514;2022-07-23T10:52:17;23.08;52.70
73750;SHT30;62058;48.406;-4.514;2022-07-23T10:54:53;23.07;52.91
73750;SHT30;62058;48.406;-4.514;2022-07-23T10:57:26;23.07;52.43
73750;SHT30;62058;48.406;-4.514;2022-07-23T11:02:32;23.14;55.23
73750;SHT30;62058;48.406;-4.514;2022-07-23T11:05:07;23.21;55.54
73750;SHT30;62058;48.406;-4.514;2022-07-23T11:07:34;23.15;55.47
73750;SHT30;62058;48.406;-4.514;2022-07-23T11:09:59;23.44;55.13
73750;SHT30;62058;48.406;-4.514;2022-07-23T11:15:13;23.44;55.36
73750;SHT30;62058;48.406;-4.514;2022-07-23T11:18:00;23.82;54.20
73750;SHT30;62058;48.406;-4.514;2022-07-23T11:20:26;24.33;53.63
73750;SHT30;62058;48.406;-4.514;2022-07-23T11:22:55;24.71;53.28
73750;SHT30;62058;48.406;-4.514;2022-07-23T11:27:47;25.49;50.67
73750;SHT30;62058;48.406;-4.514;2022-07-23T11:30:37;25.61;49.98
73750;SHT30;62058;48.406;-4.514;2022-07-23T11:35:37;25.72;50.67
73750;SHT30;62058;48.406;-4.514;2022-07-23T11:38:19;25.75;50.11
73750;SHT30;62058;48.406;-4.514;2022-07-23T11:40:54;25.85;49.83
73750;SHT30;62058;48.406;-4.514;2022-07-23T11:43:23;25.92;49.61
73750;SHT30;62058;48.406;-4.514;2022-07-23T11:45:53;25.98;49.84
73750;SHT30;62058;48.406;-4.514;2022-07-23T11:48:21;26.14;49.39
73750;SHT30;62058;48.406;-4.514;2022-07-23T11:50:48;26.41;48.78
73750;SHT30;62058;48.406;-4.514;2022-07-23T11:53:27;26.44;48.08
73750;SHT30;62058;48.406;-4.514;2022-07-23T11:55:53;26.84;48.06
73750;SHT30;62058;48.406;-4.514;2022-07-23T11:58:20;26.85;47.39
73750;SHT30;62058;48.406;-4.514;2022-07-23T12:00:46;26.75;47.82
73750;SHT30;62058;48.406;-4.514;2022-07-23T12:03:11;26.49;48.33
73750;SHT30;62058;48.406;-4.514;2022-07-23T12:05:38;26.40;48.63
73750;SHT30;62058;48.406;-4.514;2022-07-23T12:08:05;26.36;48.84
73750;SHT30;62058;48.406;-4.514;2022-07-23T12:10:48;26.71;48.72
73750;SHT30;62058;48.406;-4.514;2022-07-23T12:13:16;26.62;47.79
73750;SHT30;62058;48.406;-4.514;2022-07-23T12:15:48;26.58;48.37
73750;SHT30;62058;48.406;-4.514;2022-07-23T12:18:17;26.21;48.93
73750;SHT30;62058;48.406;-4.514;2022-07-23T12:20:47;26.07;49.52
73750;SHT30;62058;48.406;-4.514;2022-07-23T12:23:14;25.94;49.68
73750;SHT30;62058;48.406;-4.514;2022-07-23T12:25:44;26.08;49.56
73750;SHT30;62058;48.406;-4.514;2022-07-23T12:30:46;26.58;48.95
73750;SHT30;62058;48.406;-4.514;2022-07-23T12:33:15;26.81;48.71
73750;SHT30;62058;48.406;-4.514;2022-07-23T12:38:09;26.88;48.26
73750;SHT30;62058;48.406;-4.514;2022-07-23T12:40:44;27.00;48.18
73750;SHT30;62058;48.406;-4.514;2022-07-23T12:46:02;27.50;46.60
73750;SHT30;62058;48.406;-4.514;2022-07-23T12:48:38;27.97;46.08
73750;SHT30;62058;48.406;-4.514;2022-07-23T12:51:17;28.01;45.32
73750;SHT30;62058;48.406;-4.514;2022-07-23T12:53:51;28.07;45.33
73750;SHT30;62058;48.406;-4.514;2022-07-23T12:56:21;27.84;45.52
73750;SHT30;62058;48.406;-4.514;2022-07-23T13:09:14;28.66;43.96
73750;SHT30;62058;48.406;-4.514;2022-07-23T13:11:40;28.95;43.50
73750;SHT30;62058;48.406;-4.514;2022-07-23T13:14:05;28.82;43.76
73750;SHT30;62058;48.406;-4.514;2022-07-23T13:16:32;28.89;42.80
73750;SHT30;62058;48.406;-4.514;2022-07-23T13:18:59;29.22;43.46
73750;SHT30;62058;48.406;-4.514;2022-07-23T13:21:25;29.02;42.83
73750;SHT30;62058;48.406;-4.514;2022-07-23T13:23:51;28.85;43.39
73750;SHT30;62058;48.406;-4.514;2022-07-23T13:26:17;29.06;42.57
73750;SHT30;62058;48.406;-4.514;2022-07-23T13:28:42;28.95;42.19
73750;SHT30;62058;48.406;-4.514;2022-07-23T13:31:08;29.33;42.22
73750;SHT30;62058;48.406;-4.514;2022-07-23T13:33:34;29.19;42.52
73750;SHT30;62058;48.406;-4.514;2022-07-23T13:35:59;29.43;41.86
73750;SHT30;62058;48.406;-4.514;2022-07-23T13:38:25;30.32;41.06
73750;SHT30;62058;48.406;-4.514;2022-07-23T13:40:52;30.63;40.39
73750;SHT30;62058;48.406;-4.514;2022-07-23T13:43:20;30.14;39.94
73750;SHT30;62058;48.406;-4.514;2022-07-23T13:45:47;30.55;39.97
73750;SHT30;62058;48.406;-4.514;2022-07-23T13:48:13;31.20;39.54
73750;SHT30;62058;48.406;-4.514;2022-07-23T13:50:40;31.94;38.92
73750;SHT30;62058;48.406;-4.514;2022-07-23T13:53:09;32.24;37.99
73750;SHT30;62058;48.406;-4.514;2022-07-23T13:55:36;32.21;37.89
73750;SHT30;62058;48.406;-4.514;2022-07-23T13:58:01;32.63;37.23
73750;SHT30;62058;48.406;-4.514;2022-07-23T14:00:28;32.67;35.74
73750;SHT30;62058;48.406;-4.514;2022-07-23T14:02:56;32.87;36.04
73750;SHT30;62058;48.406;-4.514;2022-07-23T14:05:21;32.63;36.43
73750;SHT30;62058;48.406;-4.514;2022-07-23T14:07:46;32.26;36.03
73750;SHT30;62058;48.406;-4.514;2022-07-23T14:10:15;31.74;37.16
73750;SHT30;62058;48.406;-4.514;2022-07-23T14:12:41;31.33;37.99
73750;SHT30;62058;48.406;-4.514;2022-07-23T14:15:07;31.20;38.27
73750;SHT30;62058;48.406;-4.514;2022-07-23T14:17:36;30.99;38.77
73750;SHT30;62058;48.406;-4.514;2022-07-23T14:20:02;30.59;39.04
73750;SHT30;62058;48.406;-4.514;2022-07-23T14:22:28;30.38;39.58
73750;SHT30;62058;48.406;-4.514;2022-07-23T14:24:53;30.59;39.41
73750;SHT30;62058;48.406;-4.514;2022-07-23T14:27:19;29.96;40.19
73750;SHT30;62058;48.406;-4.514;2022-07-23T14:29:44;30.00;40.29
73750;SHT30;62058;48.406;-4.514;2022-07-23T14:32:09;29.60;40.77
73750;SHT30;62058;48.406;-4.514;2022-07-23T14:34:35;29.16;41.57
73750;SHT30;62058;48.406;-4.514;2022-07-23T14:37:01;28.72;42.95
73750;SHT30;62058;48.406;-4.514;2022-07-23T14:39:27;28.25;43.67
73750;SHT30;62058;48.406;-4.514;2022-07-23T14:41:53;28.20;43.88
73750;SHT30;62058;48.406;-4.514;2022-07-23T14:44:18;27.89;44.62
73750;SHT30;62058;48.406;-4.514;2022-07-23T14:46:44;27.80;44.90
73750;SHT30;62058;48.406;-4.514;2022-07-23T14:49:09;27.54;44.97
73750;SHT30;62058;48.406;-4.514;2022-07-23T14:51:35;27.43;45.65
73750;SHT30;62058;48.406;-4.514;2022-07-23T14:54:02;27.59;45.32
73750;SHT30;62058;48.406;-4.514;2022-07-23T14:56:28;27.45;46.28
73750;SHT30;62058;48.406;-4.514;2022-07-23T14:58:53;27.42;45.98
73750;SHT30;62058;48.406;-4.514;2022-07-23T15:01:21;27.39;45.92
73750;SHT30;62058;48.406;-4.514;2022-07-23T15:03:47;27.38;46.41
73750;SHT30;62058;48.406;-4.514;2022-07-23T15:06:13;27.33;46.62
73750;SHT30;62058;48.406;-4.514;2022-07-23T15:08:39;27.45;46.04
73750;SHT30;62058;48.406;-4.514;2022-07-23T15:11:04;27.63;45.59
73750;SHT30;62058;48.406;-4.514;2022-07-23T15:13:29;27.90;45.17
73750;SHT30;62058;48.406;-4.514;2022-07-23T15:15:55;27.86;45.43
73750;SHT30;62058;48.406;-4.514;2022-07-23T15:18:20;27.91;44.99
73750;SHT30;62058;48.406;-4.514;2022-07-23T15:20:46;27.90;45.13
73750;SHT30;62058;48.406;-4.514;2022-07-23T15:23:11;27.90;44.60
73750;SHT30;62058;48.406;-4.514;2022-07-23T15:25:38;27.08;46.03
73750;SHT30;62058;48.406;-4.514;2022-07-23T15:28:04;27.03;46.35
73750;SHT30;62058;48.406;-4.514;2022-07-23T15:30:29;26.87;46.98
73750;SHT30;62058;48.406;-4.514;2022-07-23T15:32:55;27.28;46.13
73750;SHT30;62058;48.406;-4.514;2022-07-23T15:35:20;27.39;45.90
73750;SHT30;62058;48.406;-4.514;2022-07-23T15:37:46;27.67;45.39
73750;SHT30;62058;48.406;-4.514;2022-07-23T15:40:12;27.43;45.74
73750;SHT30;62058;48.406;-4.514;2022-07-23T15:42:38;27.69;45.30
73750;SHT30;62058;48.406;-4.514;2022-07-23T15:45:04;27.67;45.22
73750;SHT30;62058;48.406;-4.514;2022-07-23T15:47:30;27.84;44.79
73750;SHT30;62058;48.406;-4.514;2022-07-23T15:49:55;27.90;44.71
73750;SHT30;62058;48.406;-4.514;2022-07-23T15:52:21;28.17;44.36
73750;SHT30;62058;48.406;-4.514;2022-07-23T15:54:46;28.47;43.73
73750;SHT30;62058;48.406;-4.514;2022-07-23T15:57:12;28.76;43.10
73750;SHT30;62058;48.406;-4.514;2022-07-23T15:59:37;29.25;42.18